sensor_id;sensor_type;location;lat;lon;timestamp;pressure;altitude;pressure_sealevel;temperature;humidity
48555;BME280;34336;48.270;16.716;2023-01-28T00:01:26;78047.41;;;18.16;89.27
48555;BME280;34336;48.270;16.716;2023-01-28T00:03:53;78047.41;;;18.16;89.34
48555;BME280;34336;48.270;16.716;2023-01-28T00:06:19;78049.31;;;18.16;90.03
48555;BME280;34336;48.270;16.716;2023-01-28T00:08:47;78055.09;;;18.16;90.26
48555;BME280;34336;48.270;16.716;2023-01-28T00:11:13;78053.19;;;18.16;90.00
48555;BME280;34336;48.270;16.716;2023-01-28T00:13:40;78055.09;;;18.16;89.28
48555;BME280;34336;48.270;16.716;2023-01-28T00:16:08;78049.31;;;18.16;89.84
48555;BME280;34336;48.270;16.716;2023-01-28T00:18:36;78062.81;;;18.16;89.55
48555;BME280;34336;48.270;16.716;2023-01-28T00:21:09;78053.19;;;18.16;89.87
48555;BME280;34336;48.270;16.716;2023-01-28T00:23:38;78051.25;;;18.16;89.85
48555;BME280;34336;48.270;16.716;2023-01-28T00:26:09;78055.09;;;18.16;89.62
48555;BME280;34336;48.270;16.716;2023-01-28T00:28:39;78047.41;;;18.16;90.34
48555;BME280;34336;48.270;16.716;2023-01-28T00:31:15;78047.41;;;18.16;89.98
48555;BME280;34336;48.270;16.716;2023-01-28T00:33:44;78051.25;;;18.16;90.05
48555;BME280;34336;48.270;16.716;2023-01-28T00:36:11;78049.31;;;18.16;89.86
48555;BME280;34336;48.270;16.716;2023-01-28T00:38:38;78055.09;;;18.16;89.87
48555;BME280;34336;48.270;16.716;2023-01-28T00:41:18;78060.91;;;18.16;89.95
48555;BME280;34336;48.270;16.716;2023-01-28T00:43:50;78058.97;;;18.16;89.69
48555;BME280;34336;48.270;16.716;2023-01-28T00:46:18;78055.09;;;18.16;89.71
48555;BME280;34336;48.270;16.716;2023-01-28T00:48:45;78058.97;;;18.16;89.17
48555;BME280;34336;48.270;16.716;2023-01-28T00:51:14;78058.97;;;18.16;88.82
48555;BME280;34336;48.270;16.716;2023-01-28T00:53:43;78055.09;;;18.16;88.70
48555;BME280;34336;48.270;16.716;2023-01-28T00:56:13;78062.81;;;18.16;88.56
48555;BME280;34336;48.270;16.716;2023-01-28T00:58:40;78066.69;;;18.16;87.96
48555;BME280;34336;48.270;16.716;2023-01-28T01:01:13;78066.69;;;18.16;88.55
48555;BME280;34336;48.270;16.716;2023-01-28T01:03:41;78064.75;;;18.16;88.41
48555;BME280;34336;48.270;16.716;2023-01-28T01:06:09;78066.69;;;18.16;89.06
48555;BME280;34336;48.270;16.716;2023-01-28T01:08:37;78074.38;;;18.16;88.63
48555;BME280;34336;48.270;16.716;2023-01-28T01:11:10;78066.69;;;18.16;88.18
48555;BME280;34336;48.270;16.716;2023-01-28T01:13:37;78068.59;;;18.16;88.07
48555;BME280;34336;48.270;16.716;2023-01-28T01:16:09;78074.38;;;18.16;88.23
48555;BME280;34336;48.270;16.716;2023-01-28T01:18:37;78070.53;;;18.16;87.98
48555;BME280;34336;48.270;16.716;2023-01-28T01:21:13;78070.53;;;18.16;87.96
48555;BME280;34336;48.270;16.716;2023-01-28T01:23:40;78058.97;;;18.16;88.01
48555;BME280;34336;48.270;16.716;2023-01-28T01:26:07;78051.25;;;18.16;87.44
48555;BME280;34336;48.270;16.716;2023-01-28T01:28:34;78058.97;;;18.16;87.86
48555;BME280;34336;48.270;16.716;2023-01-28T01:31:06;78058.97;;;18.16;87.99
48555;BME280;34336;48.270;16.716;2023-01-28T01:33:33;78062.81;;;18.16;88.34
48555;BME280;34336;48.270;16.716;2023-01-28T01:36:01;78062.81;;;18.16;88.26
48555;BME280;34336;48.270;16.716;2023-01-28T01:38:28;78072.47;;;18.16;88.59
48555;BME280;34336;48.270;16.716;2023-01-28T01:40:59;78078.25;;;18.16;88.85
48555;BME280;34336;48.270;16.716;2023-01-28T01:46:13;78078.25;;;18.16;89.85
48555;BME280;34336;48.270;16.716;2023-01-28T01:48:43;78074.38;;;18.16;90.35
48555;BME280;34336;48.270;16.716;2023-01-28T01:51:13;78078.25;;;18.16;89.50
48555;BME280;34336;48.270;16.716;2023-01-28T01:53:45;78070.53;;;18.16;89.39
48555;BME280;34336;48.270;16.716;2023-01-28T01:56:16;78070.53;;;18.16;89.80
48555;BME280;34336;48.270;16.716;2023-01-28T01:58:46;78064.75;;;18.16;89.22
48555;BME280;34336;48.270;16.716;2023-01-28T02:01:18;78066.69;;;18.16;89.25
48555;BME280;34336;48.270;16.716;2023-01-28T02:04:09;78062.81;;;18.16;89.20
48555;BME280;34336;48.270;16.716;2023-01-28T02:06:38;78062.81;;;18.16;89.26
48555;BME280;34336;48.270;16.716;2023-01-28T02:09:22;78055.09;;;18.16;88.78
48555;BME280;34336;48.270;16.716;2023-01-28T02:11:51;78049.31;;;18.16;88.23
48555;BME280;34336;48.270;16.716;2023-01-28T02:14:20;78047.41;;;18.16;87.51
48555;BME280;34336;48.270;16.716;2023-01-28T02:16:58;78049.31;;;18.16;87.71
48555;BME280;34336;48.270;16.716;2023-01-28T02:19:31;78047.41;;;18.16;87.67
48555;BME280;34336;48.270;16.716;2023-01-28T02:22:14;78039.69;;;18.16;87.14
48555;BME280;34336;48.270;16.716;2023-01-28T02:30:28;78031.97;;;18.16;86.22
48555;BME280;34336;48.270;16.716;2023-01-28T02:33:04;78031.97;;;18.16;86.27
48555;BME280;34336;48.270;16.716;2023-01-28T02:35:39;78031.97;;;18.16;85.67
48555;BME280;34336;48.270;16.716;2023-01-28T02:38:11;78039.69;;;18.16;85.48
48555;BME280;34336;48.270;16.716;2023-01-28T02:40:42;78043.53;;;18.16;86.34
48555;BME280;34336;48.270;16.716;2023-01-28T02:43:48;78049.31;;;18.16;86.06
48555;BME280;34336;48.270;16.716;2023-01-28T02:49:26;78051.25;;;18.16;86.09
48555;BME280;34336;48.270;16.716;2023-01-28T03:00:17;78043.53;;;18.16;86.47
48555;BME280;34336;48.270;16.716;2023-01-28T03:05:29;78043.53;;;18.16;86.39
48555;BME280;34336;48.270;16.716;2023-01-28T03:07:56;78057.03;;;18.16;86.91
48555;BME280;34336;48.270;16.716;2023-01-28T03:10:25;78055.09;;;18.16;86.91
48555;BME280;34336;48.270;16.716;2023-01-28T03:12:54;78055.09;;;18.16;87.40
48555;BME280;34336;48.270;16.716;2023-01-28T03:15:44;78070.53;;;18.16;88.97
48555;BME280;34336;48.270;16.716;2023-01-28T03:18:46;78074.38;;;18.16;90.53
48555;BME280;34336;48.270;16.716;2023-01-28T03:21:41;78082.09;;;18.16;91.16
48555;BME280;34336;48.270;16.716;2023-01-28T03:24:54;78082.09;;;18.16;92.19
48555;BME280;34336;48.270;16.716;2023-01-28T03:27:54;78093.66;;;18.16;92.21
48555;BME280;34336;48.270;16.716;2023-01-28T03:30:49;78089.81;;;18.16;92.17
48555;BME280;34336;48.270;16.716;2023-01-28T03:33:48;78089.81;;;18.16;92.73
48555;BME280;34336;48.270;16.716;2023-01-28T03:36:35;78093.66;;;18.16;92.52
48555;BME280;34336;48.270;16.716;2023-01-28T03:39:36;78097.53;;;18.16;93.33
48555;BME280;34336;48.270;16.716;2023-01-28T03:42:08;78095.59;;;18.16;94.02
48555;BME280;34336;48.270;16.716;2023-01-28T03:44:44;78093.66;;;18.16;95.20
48555;BME280;34336;48.270;16.716;2023-01-28T03:47:25;78107.16;;;18.16;96.14
48555;BME280;34336;48.270;16.716;2023-01-28T03:49:54;78109.09;;;18.16;96.64
48555;BME280;34336;48.270;16.716;2023-01-28T03:52:24;78105.22;;;18.16;97.94
48555;BME280;34336;48.270;16.716;2023-01-28T03:54:54;78112.94;;;18.16;98.31
48555;BME280;34336;48.270;16.716;2023-01-28T03:57:24;78116.81;;;18.16;99.24
48555;BME280;34336;48.270;16.716;2023-01-28T03:59:51;78107.16;;;18.16;99.57
48555;BME280;34336;48.270;16.716;2023-01-28T04:02:20;78114.88;;;18.16;99.74
48555;BME280;34336;48.270;16.716;2023-01-28T04:04:48;78111.03;;;18.16;99.65
48555;BME280;34336;48.270;16.716;2023-01-28T04:07:16;78112.94;;;18.16;100.00
48555;BME280;34336;48.270;16.716;2023-01-28T04:10:18;78111.03;;;18.16;99.54
48555;BME280;34336;48.270;16.716;2023-01-28T04:12:49;78107.16;;;18.16;99.40
48555;BME280;34336;48.270;16.716;2023-01-28T04:15:19;78105.22;;;18.16;98.47
48555;BME280;34336;48.270;16.716;2023-01-28T04:17:47;78107.16;;;18.16;98.10
48555;BME280;34336;48.270;16.716;2023-01-28T04:20:23;78112.94;;;18.16;97.63
48555;BME280;34336;48.270;16.716;2023-01-28T04:22:50;78105.22;;;18.16;97.25
48555;BME280;34336;48.270;16.716;2023-01-28T04:25:18;78099.44;;;18.16;96.32
48555;BME280;34336;48.270;16.716;2023-01-28T04:27:45;78099.44;;;18.16;95.34
48555;BME280;34336;48.270;16.716;2023-01-28T04:30:17;78095.59;;;18.16;95.54
48555;BME280;34336;48.270;16.716;2023-01-28T04:33:09;78093.66;;;18.16;94.32
48555;BME280;34336;48.270;16.716;2023-01-28T04:35:45;78087.88;;;18.16;92.60
48555;BME280;34336;48.270;16.716;2023-01-28T04:38:20;78093.66;;;18.16;92.16
48555;BME280;34336;48.270;16.716;2023-01-28T04:41:01;78082.09;;;18.16;91.81
48555;BME280;34336;48.270;16.716;2023-01-28T04:43:31;78087.88;;;18.16;91.04
48555;BME280;34336;48.270;16.716;2023-01-28T04:46:27;78091.75;;;18.16;91.52
48555;BME280;34336;48.270;16.716;2023-01-28T04:49:04;78089.81;;;18.16;91.11
48555;BME280;34336;48.270;16.716;2023-01-28T04:51:38;78091.75;;;18.16;90.87
48555;BME280;34336;48.270;16.716;2023-01-28T04:54:23;78085.97;;;18.16;90.67
48555;BME280;34336;48.270;16.716;2023-01-28T04:56:52;78085.97;;;18.16;90.75
48555;BME280;34336;48.270;16.716;2023-01-28T04:59:18;78091.75;;;18.16;90.82
48555;BME280;34336;48.270;16.716;2023-01-28T05:01:46;78089.81;;;18.16;90.66
48555;BME280;34336;48.270;16.716;2023-01-28T05:04:13;78089.81;;;18.16;90.58
48555;BME280;34336;48.270;16.716;2023-01-28T05:06:39;78082.09;;;18.16;89.65
48555;BME280;34336;48.270;16.716;2023-01-28T05:09:15;78085.97;;;18.16;89.18
48555;BME280;34336;48.270;16.716;2023-01-28T05:11:42;78082.09;;;18.16;88.96
48555;BME280;34336;48.270;16.716;2023-01-28T05:14:08;78084.03;;;18.16;88.85
48555;BME280;34336;48.270;16.716;2023-01-28T05:16:58;78074.38;;;18.16;88.93
48555;BME280;34336;48.270;16.716;2023-01-28T05:19:26;78080.19;;;18.16;88.73
48555;BME280;34336;48.270;16.716;2023-01-28T05:21:53;78085.97;;;18.16;89.28
48555;BME280;34336;48.270;16.716;2023-01-28T05:24:38;78085.97;;;18.16;89.14
48555;BME280;34336;48.270;16.716;2023-01-28T05:27:05;78089.81;;;18.16;89.65
48555;BME280;34336;48.270;16.716;2023-01-28T05:29:32;78093.66;;;18.16;90.55
48555;BME280;34336;48.270;16.716;2023-01-28T05:31:59;78089.81;;;18.16;90.38
48555;BME280;34336;48.270;16.716;2023-01-28T05:34:26;78093.66;;;18.16;90.45
48555;BME280;34336;48.270;16.716;2023-01-28T05:36:54;78093.66;;;18.16;91.28
48555;BME280;34336;48.270;16.716;2023-01-28T05:39:28;78095.59;;;18.16;91.34
48555;BME280;34336;48.270;16.716;2023-01-28T05:41:55;78101.38;;;18.16;91.50
48555;BME280;34336;48.270;16.716;2023-01-28T05:44:22;78099.44;;;18.16;92.56
48555;BME280;34336;48.270;16.716;2023-01-28T05:47:15;78105.22;;;18.16;93.35
48555;BME280;34336;48.270;16.716;2023-01-28T05:50:06;78103.31;;;18.16;94.60
48555;BME280;34336;48.270;16.716;2023-01-28T05:52:42;78112.94;;;18.16;94.40
48555;BME280;34336;48.270;16.716;2023-01-28T05:55:18;78105.22;;;18.16;95.49
48555;BME280;34336;48.270;16.716;2023-01-28T05:57:47;78114.88;;;18.16;95.31
48555;BME280;34336;48.270;16.716;2023-01-28T06:00:17;78109.09;;;18.16;96.12
48555;BME280;34336;48.270;16.716;2023-01-28T06:02:44;78112.94;;;18.16;96.84
48555;BME280;34336;48.270;16.716;2023-01-28T06:05:13;78112.94;;;18.16;97.56
48555;BME280;34336;48.270;16.716;2023-01-28T06:07:44;78120.66;;;18.16;97.54
48555;BME280;34336;48.270;16.716;2023-01-28T06:10:11;78120.66;;;18.16;98.33
48555;BME280;34336;48.270;16.716;2023-01-28T06:12:39;78124.50;;;18.16;98.58
48555;BME280;34336;48.270;16.716;2023-01-28T06:15:24;78128.38;;;18.16;99.31
48555;BME280;34336;48.270;16.716;2023-01-28T06:18:04;78124.50;;;18.16;98.50
48555;BME280;34336;48.270;16.716;2023-01-28T06:20:32;78122.59;;;18.16;98.61
48555;BME280;34336;48.270;16.716;2023-01-28T06:23:00;78116.81;;;18.16;97.79
48555;BME280;34336;48.270;16.716;2023-01-28T06:25:27;78124.50;;;18.16;97.10
48555;BME280;34336;48.270;16.716;2023-01-28T06:27:58;78122.59;;;18.16;96.79
48555;BME280;34336;48.270;16.716;2023-01-28T06:30:24;78122.59;;;18.16;96.59
48555;BME280;34336;48.270;16.716;2023-01-28T06:32:54;78120.66;;;18.16;96.25
48555;BME280;34336;48.270;16.716;2023-01-28T06:35:21;78130.31;;;18.16;96.15
48555;BME280;34336;48.270;16.716;2023-01-28T06:37:48;78130.31;;;18.16;96.23
48555;BME280;34336;48.270;16.716;2023-01-28T06:40:15;78122.59;;;18.16;96.02
48555;BME280;34336;48.270;16.716;2023-01-28T06:42:42;78132.22;;;18.16;95.69
48555;BME280;34336;48.270;16.716;2023-01-28T06:45:08;78122.59;;;18.16;96.29
48555;BME280;34336;48.270;16.716;2023-01-28T06:47:37;78128.38;;;18.16;95.36
48555;BME280;34336;48.270;16.716;2023-01-28T06:50:04;78124.50;;;18.16;95.16
48555;BME280;34336;48.270;16.716;2023-01-28T06:52:31;78124.50;;;18.16;95.38
48555;BME280;34336;48.270;16.716;2023-01-28T06:54:58;78122.59;;;18.16;94.24
48555;BME280;34336;48.270;16.716;2023-01-28T06:57:25;78118.72;;;18.16;94.24
48555;BME280;34336;48.270;16.716;2023-01-28T06:59:51;78120.66;;;18.16;93.11
48555;BME280;34336;48.270;16.716;2023-01-28T07:02:18;78120.66;;;18.16;93.38
48555;BME280;34336;48.270;16.716;2023-01-28T07:04:44;78116.81;;;18.16;93.08
48555;BME280;34336;48.270;16.716;2023-01-28T07:07:11;78124.50;;;18.16;92.42
48555;BME280;34336;48.270;16.716;2023-01-28T07:09:38;78112.94;;;18.16;92.69
48555;BME280;34336;48.270;16.716;2023-01-28T07:12:05;78109.09;;;18.16;92.32
48555;BME280;34336;48.270;16.716;2023-01-28T07:14:31;78111.03;;;18.16;91.53
48555;BME280;34336;48.270;16.716;2023-01-28T07:16:58;78103.31;;;18.16;90.68
48555;BME280;34336;48.270;16.716;2023-01-28T07:19:25;78093.66;;;18.16;90.59
48555;BME280;34336;48.270;16.716;2023-01-28T07:21:51;78097.53;;;18.16;90.29
48555;BME280;34336;48.270;16.716;2023-01-28T07:24:18;78093.66;;;18.16;89.64
48555;BME280;34336;48.270;16.716;2023-01-28T07:26:46;78089.81;;;18.16;88.99
48555;BME280;34336;48.270;16.716;2023-01-28T07:29:13;78082.09;;;18.16;89.04
48555;BME280;34336;48.270;16.716;2023-01-28T07:31:39;78085.97;;;18.16;88.81
48555;BME280;34336;48.270;16.716;2023-01-28T07:34:08;78085.97;;;18.16;89.22
48555;BME280;34336;48.270;16.716;2023-01-28T07:36:34;78078.25;;;18.16;88.65
48555;BME280;34336;48.270;16.716;2023-01-28T07:39:01;78072.47;;;18.16;88.89
48555;BME280;34336;48.270;16.716;2023-01-28T07:41:28;78078.25;;;18.16;89.62
48555;BME280;34336;48.270;16.716;2023-01-28T07:44:02;78074.38;;;18.16;89.87
48555;BME280;34336;48.270;16.716;2023-01-28T07:46:29;78074.38;;;18.16;90.06
48555;BME280;34336;48.270;16.716;2023-01-28T07:48:56;78060.91;;;18.16;90.34
48555;BME280;34336;48.270;16.716;2023-01-28T07:51:22;78068.59;;;18.16;89.89
48555;BME280;34336;48.270;16.716;2023-01-28T07:53:49;78072.47;;;18.16;90.65
48555;BME280;34336;48.270;16.716;2023-01-28T07:56:16;78066.69;;;18.16;90.45
48555;BME280;34336;48.270;16.716;2023-01-28T07:58:42;78062.81;;;18.16;89.69
48555;BME280;34336;48.270;16.716;2023-01-28T08:01:09;78074.38;;;18.16;89.28
48555;BME280;34336;48.270;16.716;2023-01-28T08:03:35;78066.69;;;18.16;89.59
48555;BME280;34336;48.270;16.716;2023-01-28T08:57:52;78082.09;;;18.16;88.07
48555;BME280;34336;48.270;16.716;2023-01-28T09:00:20;78074.38;;;18.16;86.67
48555;BME280;34336;48.270;16.716;2023-01-28T09:02:50;78076.31;;;18.16;85.64
48555;BME280;34336;48.270;16.716;2023-01-28T09:05:17;78070.53;;;18.16;85.19
48555;BME280;34336;48.270;16.716;2023-01-28T09:11:44;78062.81;;;18.16;84.42
48555;BME280;34336;48.270;16.716;2023-01-28T09:14:11;78055.09;;;18.16;83.12
48555;BME280;34336;48.270;16.716;2023-01-28T09:16:37;78058.97;;;18.16;82.27
48555;BME280;34336;48.270;16.716;2023-01-28T09:19:06;78068.59;;;18.16;82.21
48555;BME280;34336;48.270;16.716;2023-01-28T09:21:33;78064.75;;;18.16;81.90
48555;BME280;34336;48.270;16.716;2023-01-28T09:23:59;78058.97;;;18.16;82.10
48555;BME280;34336;48.270;16.716;2023-01-28T09:26:26;78062.81;;;18.16;80.84
48555;BME280;34336;48.270;16.716;2023-01-28T09:28:53;78051.25;;;18.16;80.66
48555;BME280;34336;48.270;16.716;2023-01-28T09:31:19;78062.81;;;18.16;80.42
48555;BME280;34336;48.270;16.716;2023-01-28T09:33:46;78062.81;;;18.16;80.60
48555;BME280;34336;48.270;16.716;2023-01-28T09:36:13;78066.69;;;18.16;80.34
48555;BME280;34336;48.270;16.716;2023-01-28T09:38:40;78070.53;;;18.16;80.81
48555;BME280;34336;48.270;16.716;2023-01-28T09:41:23;78064.75;;;18.16;81.57
48555;BME280;34336;48.270;16.716;2023-01-28T09:47:56;78041.63;;;18.16;81.14
48555;BME280;34336;48.270;16.716;2023-01-28T09:50:34;78028.13;;;18.16;82.30
48555;BME280;34336;48.270;16.716;2023-01-28T09:53:06;78062.81;;;18.16;82.45
48555;BME280;34336;48.270;16.716;2023-01-28T09:55:42;78074.38;;;18.16;83.50
48555;BME280;34336;48.270;16.716;2023-01-28T09:58:13;78084.03;;;18.16;83.41
48555;BME280;34336;48.270;16.716;2023-01-28T10:07:20;78070.53;;;18.16;83.99
48555;BME280;34336;48.270;16.716;2023-01-28T10:17:44;78037.75;;;18.16;84.20
48555;BME280;34336;48.270;16.716;2023-01-28T10:20:15;78031.97;;;18.16;84.16
48555;BME280;34336;48.270;16.716;2023-01-28T10:25:21;78016.56;;;18.16;84.20
48555;BME280;34336;48.270;16.716;2023-01-28T10:27:50;78003.06;;;18.16;84.31
48555;BME280;34336;48.270;16.716;2023-01-28T10:30:23;78005.00;;;18.16;84.51
48555;BME280;34336;48.270;16.716;2023-01-28T10:35:36;78022.34;;;18.16;84.76
48555;BME280;34336;48.270;16.716;2023-01-28T10:38:07;78055.09;;;18.16;84.93
48555;BME280;34336;48.270;16.716;2023-01-28T10:40:35;78051.25;;;18.16;85.47
48555;BME280;34336;48.270;16.716;2023-01-28T10:43:02;78051.25;;;18.16;85.55
48555;BME280;34336;48.270;16.716;2023-01-28T10:45:33;78039.69;;;18.16;85.23
48555;BME280;34336;48.270;16.716;2023-01-28T10:48:25;78024.25;;;18.16;84.76
48555;BME280;34336;48.270;16.716;2023-01-28T10:50:54;78016.56;;;18.16;84.08
48555;BME280;34336;48.270;16.716;2023-01-28T10:53:42;78008.84;;;18.16;83.94
48555;BME280;34336;48.270;16.716;2023-01-28T10:56:13;77999.19;;;18.16;84.09
48555;BME280;34336;48.270;16.716;2023-01-28T10:58:56;78016.56;;;18.16;84.69
48555;BME280;34336;48.270;16.716;2023-01-28T11:01:24;77989.56;;;18.16;84.79
48555;BME280;34336;48.270;16.716;2023-01-28T11:03:55;77995.34;;;18.16;84.96
48555;BME280;34336;48.270;16.716;2023-01-28T11:06:29;77989.56;;;18.16;84.79
48555;BME280;34336;48.270;16.716;2023-01-28T11:08:56;78005.00;;;18.16;84.77
48555;BME280;34336;48.270;16.716;2023-01-28T11:11:27;77997.28;;;18.16;84.85
48555;BME280;34336;48.270;16.716;2023-01-28T11:13:54;78012.69;;;18.16;85.64
48555;BME280;34336;48.270;16.716;2023-01-28T11:16:26;78010.78;;;18.16;85.88
48555;BME280;34336;48.270;16.716;2023-01-28T11:18:56;78016.56;;;18.16;86.66
48555;BME280;34336;48.270;16.716;2023-01-28T11:21:28;78001.13;;;18.16;86.42
48555;BME280;34336;48.270;16.716;2023-01-28T11:24:11;78012.69;;;18.16;85.43
48555;BME280;34336;48.270;16.716;2023-01-28T11:26:43;78005.00;;;18.16;85.65
48555;BME280;34336;48.270;16.716;2023-01-28T11:29:31;77999.19;;;18.16;86.49
48555;BME280;34336;48.270;16.716;2023-01-28T11:31:59;78016.56;;;18.16;85.75
48555;BME280;34336;48.270;16.716;2023-01-28T11:34:34;78012.69;;;18.16;86.57
48555;BME280;34336;48.270;16.716;2023-01-28T11:37:12;78020.41;;;18.16;86.34
48555;BME280;34336;48.270;16.716;2023-01-28T11:39:41;78031.97;;;18.16;86.44
48555;BME280;34336;48.270;16.716;2023-01-28T11:42:16;78005.00;;;18.16;86.17
48555;BME280;34336;48.270;16.716;2023-01-28T11:44:43;78045.47;;;18.16;84.98
48555;BME280;34336;48.270;16.716;2023-01-28T12:19:43;78020.41;;;18.16;86.35
48555;BME280;34336;48.270;16.716;2023-01-28T12:22:27;78028.13;;;18.16;85.93
48555;BME280;34336;48.270;16.716;2023-01-28T12:44:53;78030.06;;;18.16;88.25
48555;BME280;34336;48.270;16.716;2023-01-28T12:47:30;78024.25;;;18.16;88.82
48555;BME280;34336;48.270;16.716;2023-01-28T12:50:24;78024.25;;;18.16;89.11
48555;BME280;34336;48.270;16.716;2023-01-28T12:52:54;78035.84;;;18.16;89.45
48555;BME280;34336;48.270;16.716;2023-01-28T12:55:42;78024.25;;;18.16;88.98
48555;BME280;34336;48.270;16.716;2023-01-28T12:58:23;78022.34;;;18.16;89.04
48555;BME280;34336;48.270;16.716;2023-01-28T13:01:00;78018.47;;;18.16;88.81
48555;BME280;34336;48.270;16.716;2023-01-28T13:03:34;78028.13;;;18.16;88.77
48555;BME280;34336;48.270;16.716;2023-01-28T13:06:24;78006.91;;;18.16;89.41
48555;BME280;34336;48.270;16.716;2023-01-28T13:08:59;78008.84;;;18.16;88.31
48555;BME280;34336;48.270;16.716;2023-01-28T13:11:34;78012.69;;;18.16;87.86
48555;BME280;34336;48.270;16.716;2023-01-28T13:14:03;78018.47;;;18.16;87.49
48555;BME280;34336;48.270;16.716;2023-01-28T13:16:30;78001.13;;;18.16;85.99
48555;BME280;34336;48.270;16.716;2023-01-28T13:21:44;77997.28;;;18.16;87.06
48555;BME280;34336;48.270;16.716;2023-01-28T13:31:56;77987.63;;;18.16;84.00
48555;BME280;34336;48.270;16.716;2023-01-28T13:40:16;77962.56;;;18.16;82.42
48555;BME280;34336;48.270;16.716;2023-01-28T13:43:02;77937.50;;;18.16;82.34
48555;BME280;34336;48.270;16.716;2023-01-28T13:45:30;77945.22;;;18.16;81.04
48555;BME280;34336;48.270;16.716;2023-01-28T13:48:13;77956.78;;;18.16;80.05
48555;BME280;34336;48.270;16.716;2023-01-28T13:50:44;77970.28;;;18.16;79.22
48555;BME280;34336;48.270;16.716;2023-01-28T13:53:38;78008.84;;;18.16;78.80
48555;BME280;34336;48.270;16.716;2023-01-28T13:56:17;78022.34;;;18.16;79.04
48555;BME280;34336;48.270;16.716;2023-01-28T14:01:37;78031.97;;;18.16;79.55
48555;BME280;34336;48.270;16.716;2023-01-28T14:18:24;78047.41;;;18.16;80.22
48555;BME280;34336;48.270;16.716;2023-01-28T14:20:54;78058.97;;;18.16;80.25
48555;BME280;34336;48.270;16.716;2023-01-28T14:23:22;78043.53;;;18.16;80.05
48555;BME280;34336;48.270;16.716;2023-01-28T14:28:34;78051.25;;;18.16;80.73
48555;BME280;34336;48.270;16.716;2023-01-28T14:31:20;78051.25;;;18.16;81.23
48555;BME280;34336;48.270;16.716;2023-01-28T14:33:50;78082.09;;;18.16;81.72
48555;BME280;34336;48.270;16.716;2023-01-28T14:36:17;78062.81;;;18.16;82.36
48555;BME280;34336;48.270;16.716;2023-01-28T14:38:45;78076.31;;;18.16;82.60
48555;BME280;34336;48.270;16.716;2023-01-28T14:41:26;78082.09;;;18.16;83.83
48555;BME280;34336;48.270;16.716;2023-01-28T14:43:54;78074.38;;;18.16;84.18
48555;BME280;34336;48.270;16.716;2023-01-28T14:46:29;78093.66;;;18.16;84.92
48555;BME280;34336;48.270;16.716;2023-01-28T14:49:34;78089.81;;;18.16;85.24
48555;BME280;34336;48.270;16.716;2023-01-28T14:57:44;78111.03;;;18.16;86.41
48555;BME280;34336;48.270;16.716;2023-01-28T15:00:18;78116.81;;;18.16;87.27
48555;BME280;34336;48.270;16.716;2023-01-28T15:02:45;78114.88;;;18.16;88.01
48555;BME280;34336;48.270;16.716;2023-01-28T15:05:21;78114.88;;;18.16;89.02
48555;BME280;34336;48.270;16.716;2023-01-28T15:07:48;78136.09;;;18.16;89.69
48555;BME280;34336;48.270;16.716;2023-01-28T15:10:19;78147.66;;;18.16;90.69
48555;BME280;34336;48.270;16.716;2023-01-28T15:12:54;78141.88;;;18.16;91.34
48555;BME280;34336;48.270;16.716;2023-01-28T15:15:39;78155.34;;;18.16;92.54
48555;BME280;34336;48.270;16.716;2023-01-28T15:18:15;78151.50;;;18.16;92.66
48555;BME280;34336;48.270;16.716;2023-01-28T15:20:45;78166.94;;;18.16;93.27
48555;BME280;34336;48.270;16.716;2023-01-28T15:23:15;78178.50;;;18.16;94.93
48555;BME280;34336;48.270;16.716;2023-01-28T15:25:47;78180.44;;;18.16;96.58
48555;BME280;34336;48.270;16.716;2023-01-28T15:28:26;78186.22;;;18.16;97.05
48555;BME280;34336;48.270;16.716;2023-01-28T15:30:54;78209.34;;;18.16;98.74
48555;BME280;34336;48.270;16.716;2023-01-28T15:33:21;78201.63;;;18.16;100.00
48555;BME280;34336;48.270;16.716;2023-01-28T15:35:50;78192.00;;;18.16;100.00
48555;BME280;34336;48.270;16.716;2023-01-28T15:38:18;78217.06;;;18.16;100.00
48555;BME280;34336;48.270;16.716;2023-01-28T15:40:53;78197.78;;;18.16;100.00
48555;BME280;34336;48.270;16.716;2023-01-28T15:43:26;78213.19;;;18.16;100.00
48555;BME280;34336;48.270;16.716;2023-01-28T15:45:55;78209.34;;;18.16;100.00
48555;BME280;34336;48.270;16.716;2023-01-28T15:48:27;78220.91;;;18.16;100.00
48555;BME280;34336;48.270;16.716;2023-01-28T15:51:00;78224.78;;;18.16;100.00
48555;BME280;34336;48.270;16.716;2023-01-28T15:53:32;78232.47;;;18.16;100.00
48555;BME280;34336;48.270;16.716;2023-01-28T15:56:08;78236.34;;;18.16;100.00
48555;BME280;34336;48.270;16.716;2023-01-28T15:58:37;78234.41;;;18.16;100.00
48555;BME280;34336;48.270;16.716;2023-01-28T16:03:35;78186.22;;;18.16;100.00
48555;BME280;34336;48.270;16.716;2023-01-28T16:11:05;78230.56;;;18.16;100.00
48555;BME280;34336;48.270;16.716;2023-01-28T16:13:33;78228.63;;;18.16;100.00
48555;BME280;34336;48.270;16.716;2023-01-28T16:16:02;78228.63;;;18.16;100.00
48555;BME280;34336;48.270;16.716;2023-01-28T16:18:45;78232.47;;;18.16;100.00
48555;BME280;34336;48.270;16.716;2023-01-28T16:21:23;78213.19;;;18.16;100.00
48555;BME280;34336;48.270;16.716;2023-01-28T16:26:28;78217.06;;;18.16;100.00
48555;BME280;34336;48.270;16.716;2023-01-28T16:28:55;78213.19;;;18.16;100.00
48555;BME280;34336;48.270;16.716;2023-01-28T16:31:21;78209.34;;;18.16;100.00
48555;BME280;34336;48.270;16.716;2023-01-28T16:33:48;78213.19;;;18.16;100.00
48555;BME280;34336;48.270;16.716;2023-01-28T16:36:16;78205.50;;;18.16;98.79
48555;BME280;34336;48.270;16.716;2023-01-28T16:38:44;78213.19;;;18.16;98.56
48555;BME280;34336;48.270;16.716;2023-01-28T16:43:47;78207.41;;;18.16;97.45
48555;BME280;34336;48.270;16.716;2023-01-28T16:46:14;78207.41;;;18.16;96.64